Bristol, Tennessee
Current Conditions -  °F | °C
As of 6:55 PM on Friday 31 Oct 2014 (Local Time) from KVJI Reporting Station
Drizzle Drizzle  
Wind Chill:   Ceiling: 1900
Heat Index:   Visibility: 7mi
Dew Point:   Wind: 0mph
Humidity: 95%   Direction: NA
Pressure: 29.85"   Gusts: NA
Location:  36.59°N, 82.22°W
Report Text: KVJI 312255Z AUTO 00000KT 7SM DZ SCT008 BKN019 OVC023 07/06 A2985 RMK AO2 P0001 T00650057
Loading
Personal Weather Stations






























Interactive Weather Map
Tropical Storm Tracking
New forecast layout! Learn more

10-Day Weather Forecast

Advertisements
Track Severe Weather on mobile